Time;durP1;ratioP1;P1;durP2;ratioP2;P2;SDS_P1;SDS_P2;PMS_P1;PMS_P2;Temp;Humidity;BMP_temperature;BMP_pressure;BME280_temperature;BME280_humidity;BME280_pressure;Samples;Min_cycle;Max_cycle;Signal;HPM_P1;HPM_P2
2022/01/16 00:00:20;;;;;;;25.02;18.23;;;;;;;-1.99;100.00;99070.91;10433129;28;20042;-74
2022/01/16 00:05:23;;;;;;;25.38;19.83;;;;;;;-2.00;100.00;99060.41;10424539;28;20053;-75
2022/01/16 00:10:27;;;;;;;26.88;18.45;;;;;;;-2.02;100.00;99071.03;10439178;28;20071;-75
2022/01/16 00:15:31;;;;;;;28.23;20.63;;;;;;;-2.03;100.00;99064.03;10418263;28;20501;-74
2022/01/16 00:20:34;;;;;;;25.20;18.05;;;;;;;-2.02;100.00;99047.25;10440104;28;20048;-74
2022/01/16 00:25:37;;;;;;;22.48;16.35;;;;;;;-2.03;100.00;99045.53;10424766;28;20049;-75
2022/01/16 00:30:42;;;;;;;20.17;15.95;;;;;;;-2.04;100.00;99049.09;10433789;28;20045;-75
2022/01/16 00:35:46;;;;;;;19.65;14.93;;;;;;;-2.07;100.00;99039.53;10420600;28;20076;-74
2022/01/16 00:40:49;;;;;;;19.80;14.93;;;;;;;-2.08;100.00;99014.06;10421329;28;20068;-75
2022/01/16 00:45:54;;;;;;;18.40;14.43;;;;;;;-2.09;100.00;99000.94;10438143;28;20131;-74
2022/01/16 00:50:57;;;;;;;18.90;15.32;;;;;;;-2.09;100.00;99008.88;10419872;28;20056;-74
2022/01/16 00:56:01;;;;;;;21.77;15.95;;;;;;;-2.09;100.00;99015.00;10420456;28;20049;-75
2022/01/16 01:01:05;;;;;;;23.65;17.05;;;;;;;-2.09;100.00;99029.97;10435766;28;20071;-75
2022/01/16 01:06:09;;;;;;;23.92;17.40;;;;;;;-2.10;100.00;99023.00;10433676;28;20474;-74
2022/01/16 01:11:16;;;;;;;25.98;17.73;;;;;;;-2.11;100.00;99001.00;10441287;28;20505;-75
2022/01/16 01:16:21;;;;;;;26.30;16.90;;;;;;;-2.11;100.00;98998.34;10438039;28;20048;-74
2022/01/16 01:21:28;;;;;;;24.33;17.05;;;;;;;-2.13;100.00;99008.16;10438221;28;20106;-74
2022/01/16 01:26:37;;;;;;;23.88;17.35;;;;;;;-2.13;100.00;99018.72;10434870;28;20041;-75
2022/01/16 01:31:42;;;;;;;23.27;16.08;;;;;;;-2.13;100.00;99004.63;10443298;28;20409;-74
2022/01/16 01:36:48;;;;;;;24.30;16.88;;;;;;;-2.17;100.00;98909.72;10438687;28;20040;-75
2022/01/16 01:42:02;;;;;;;36.22;24.73;;;;;;;-2.19;100.00;98876.41;10440654;28;20037;-74
2022/01/16 01:52:28;;;;;;;22.08;15.93;;;;;;;-2.21;100.00;98931.91;10416215;28;20732;-75
2022/01/16 01:57:31;;;;;;;27.08;18.55;;;;;;;-2.21;100.00;98947.75;10435201;28;20057;-74
2022/01/16 02:02:47;;;;;;;27.77;17.63;;;;;;;-2.22;100.00;98927.56;10427233;28;20041;-74
2022/01/16 02:07:51;;;;;;;29.58;19.02;;;;;;;-2.21;100.00;98921.38;10427375;28;20041;-74
2022/01/16 02:13:00;;;;;;;28.92;18.90;;;;;;;-2.21;100.00;98917.84;10433942;28;20686;-76
2022/01/16 02:29:05;;;;;;;38.28;21.75;;;;;;;-2.23;100.00;98927.63;10430506;28;20037;-74
2022/01/16 02:39:31;;;;;;;34.35;20.40;;;;;;;-2.28;100.00;98914.63;10423354;28;20067;-75
2022/01/16 02:44:44;;;;;;;33.80;20.80;;;;;;;-2.30;100.00;98913.88;10436740;28;20094;-75
2022/01/16 02:49:49;;;;;;;32.28;20.95;;;;;;;-2.34;100.00;98902.56;10419948;28;20037;-74
2022/01/16 02:54:55;;;;;;;34.38;20.75;;;;;;;-2.36;100.00;98893.00;10434381;28;20048;-75
2022/01/16 02:59:58;;;;;;;36.58;23.88;;;;;;;-2.32;100.00;98900.72;10430802;28;20061;-75
2022/01/16 03:05:01;;;;;;;32.88;22.02;;;;;;;-2.30;100.00;98895.38;10407645;28;20056;-74
2022/01/16 03:10:28;;;;;;;35.83;21.00;;;;;;;-2.33;100.00;98866.50;10427296;28;20045;-75
2022/01/16 03:15:32;;;;;;;27.75;19.50;;;;;;;-2.35;100.00;98866.53;10418468;28;20462;-74
2022/01/16 03:25:59;;;;;;;32.33;22.02;;;;;;;-2.40;100.00;98858.00;10426981;28;20045;-76
2022/01/16 03:31:02;;;;;;;33.85;22.17;;;;;;;-2.41;100.00;98843.06;10443060;28;20433;-80
2022/01/16 03:36:05;;;;;;;31.98;21.60;;;;;;;-2.43;100.00;98842.28;10408922;28;20076;-79
2022/01/16 03:41:10;;;;;;;29.77;20.33;;;;;;;-2.48;100.00;98839.84;10436222;28;20390;-77
2022/01/16 03:46:13;;;;;;;34.55;21.33;;;;;;;-2.51;100.00;98834.72;10435868;28;20056;-77
2022/01/16 03:51:17;;;;;;;32.40;21.20;;;;;;;-2.54;100.00;98837.50;10428219;28;20048;-78
2022/01/16 03:56:21;;;;;;;33.17;21.00;;;;;;;-2.58;100.00;98828.00;10423133;28;20494;-77
2022/01/16 04:01:25;;;;;;;30.23;19.42;;;;;;;-2.61;100.00;98833.41;10436788;28;20049;-77
2022/01/16 04:06:29;;;;;;;35.15;21.73;;;;;;;-2.64;100.00;98823.88;10439357;28;20060;-76
2022/01/16 04:11:33;;;;;;;30.83;20.50;;;;;;;-2.66;100.00;98824.88;10423922;28;20059;-80
2022/01/16 04:16:38;;;;;;;35.95;23.38;;;;;;;-2.66;100.00;98830.13;10409226;28;20088;-77
2022/01/16 04:21:41;;;;;;;31.80;21.58;;;;;;;-2.65;100.00;98816.03;10399782;28;20041;-77
2022/01/16 04:26:45;;;;;;;31.77;21.75;;;;;;;-2.63;100.00;98814.16;10402696;28;20057;-78
2022/01/16 04:31:48;;;;;;;28.52;19.40;;;;;;;-2.61;100.00;98828.13;10387409;28;20055;-74
2022/01/16 04:36:51;;;;;;;26.77;18.75;;;;;;;-2.57;100.00;98823.56;10394921;28;20053;-80
2022/01/16 04:47:17;;;;;;;22.73;16.23;;;;;;;-2.52;100.00;98796.06;10380885;28;20418;-77
2022/01/16 04:52:19;;;;;;;20.40;15.88;;;;;;;-2.46;100.00;98794.09;10378572;28;20061;-77
2022/01/16 04:57:24;;;;;;;20.98;15.75;;;;;;;-2.48;100.00;98791.53;10391666;28;20049;-77
2022/01/16 05:02:27;;;;;;;19.95;15.68;;;;;;;-2.44;100.00;98792.25;10374631;28;20053;-79
2022/01/16 05:07:30;;;;;;;20.30;14.65;;;;;;;-2.45;100.00;98790.53;10368850;28;20133;-77
2022/01/16 05:12:37;;;;;;;19.13;14.57;;;;;;;-2.41;100.00;98787.66;10395658;28;20067;-76
2022/01/16 05:17:40;;;;;;;17.40;12.98;;;;;;;-2.40;100.00;98757.72;10360791;28;20057;-74
2022/01/16 05:22:43;;;;;;;17.23;13.18;;;;;;;-2.25;100.00;98756.13;10385291;28;20040;-76
2022/01/16 05:27:48;;;;;;;17.20;13.05;;;;;;;-2.16;100.00;98757.50;10388036;28;20049;-76
2022/01/16 05:32:51;;;;;;;18.15;12.85;;;;;;;-2.18;100.00;98761.97;10381750;28;20038;-76
2022/01/16 05:37:54;;;;;;;16.83;13.25;;;;;;;-2.20;100.00;98754.16;10371529;28;20039;-76
2022/01/16 05:42:58;;;;;;;15.77;12.05;;;;;;;-2.14;100.00;98754.78;10397311;28;20060;-77
2022/01/16 05:48:02;;;;;;;13.55;11.65;;;;;;;-2.01;100.00;98766.47;10387730;28;20056;-75
2022/01/16 05:53:04;;;;;;;15.60;12.07;;;;;;;-1.99;100.00;98769.88;10386689;28;20052;-77
2022/01/16 05:58:10;;;;;;;16.50;12.85;;;;;;;-2.03;100.00;98777.09;10400450;28;20421;-77
2022/01/16 06:03:13;;;;;;;14.57;11.43;;;;;;;-1.96;100.00;98780.31;10374112;28;20467;-77
2022/01/16 06:08:16;;;;;;;13.35;10.75;;;;;;;-1.97;100.00;98749.56;10383545;28;20041;-76
2022/01/16 06:13:21;;;;;;;14.82;12.32;;;;;;;-1.98;100.00;98755.75;10391315;28;20048;-77
2022/01/16 06:18:24;;;;;;;15.93;12.55;;;;;;;-1.99;100.00;98753.16;10371329;28;20042;-76
2022/01/16 06:23:27;;;;;;;16.50;12.85;;;;;;;-1.95;100.00;98757.38;10402341;28;20049;-77
2022/01/16 06:28:32;;;;;;;16.08;12.80;;;;;;;-1.97;100.00;98744.28;10391389;28;20038;-77
2022/01/16 06:33:40;;;;;;;16.15;12.73;;;;;;;-1.98;100.00;98763.69;10381647;28;20049;-77
2022/01/16 06:38:43;;;;;;;17.20;13.23;;;;;;;-1.96;100.00;98760.97;10408733;28;20120;-75
2022/01/16 06:43:47;;;;;;;14.90;12.05;;;;;;;-2.00;100.00;98765.53;10387773;28;20051;-78
2022/01/16 06:48:50;;;;;;;15.38;12.13;;;;;;;-1.95;100.00;98784.66;10414799;28;20057;-78
2022/01/16 06:53:55;;;;;;;17.05;12.93;;;;;;;-1.95;100.00;98791.72;10406849;28;20490;-74
2022/01/16 06:58:59;;;;;;;16.70;13.48;;;;;;;-1.99;100.00;98791.00;10406830;28;20124;-77
2022/01/16 07:04:23;;;;;;;16.33;13.00;;;;;;;-1.99;100.00;98806.84;10399326;28;20301;-77
2022/01/16 07:09:26;;;;;;;14.32;11.70;;;;;;;-1.99;100.00;98804.22;10387521;28;20049;-77
2022/01/16 07:14:31;;;;;;;14.40;11.23;;;;;;;-2.02;100.00;98804.34;10394935;28;20052;-78
2022/01/16 07:19:34;;;;;;;14.95;12.02;;;;;;;-2.03;100.00;98815.84;10398277;28;20034;-75
2022/01/16 07:24:37;;;;;;;14.27;11.60;;;;;;;-2.04;100.00;98825.56;10396993;28;20131;-76
2022/01/16 07:29:42;;;;;;;15.52;11.73;;;;;;;-2.06;100.00;98831.84;10394904;28;20053;-77
2022/01/16 07:34:46;;;;;;;15.82;12.25;;;;;;;-2.05;100.00;98836.16;10391468;28;20068;-76
2022/01/16 07:39:49;;;;;;;17.67;13.10;;;;;;;-2.05;100.00;98838.81;10392585;28;20037;-78
2022/01/16 07:44:54;;;;;;;17.10;12.40;;;;;;;-2.19;100.00;98831.53;10388913;28;20046;-76
2022/01/16 07:49:58;;;;;;;16.02;12.23;;;;;;;-2.23;100.00;98840.50;10390418;28;20049;-78
2022/01/16 07:55:22;;;;;;;17.02;12.40;;;;;;;-2.32;100.00;98833.91;10381302;28;20045;-78
2022/01/16 08:00:27;;;;;;;17.23;13.70;;;;;;;-2.34;100.00;98833.94;10381125;28;20053;-79
2022/01/16 08:05:31;;;;;;;15.98;12.98;;;;;;;-2.35;100.00;98844.59;10386991;28;20049;-79
2022/01/16 08:10:34;;;;;;;16.52;13.15;;;;;;;-2.37;100.00;98836.75;10394331;28;20060;-78
2022/01/16 08:15:38;;;;;;;18.50;14.93;;;;;;;-2.35;100.00;98844.59;10378821;28;20072;-77
2022/01/16 08:20:41;;;;;;;17.27;13.07;;;;;;;-2.25;100.00;98851.16;10392265;28;20033;-78
2022/01/16 08:25:44;;;;;;;16.38;12.73;;;;;;;-2.06;100.00;98855.59;10396818;28;20169;-78
2022/01/16 08:30:49;;;;;;;18.60;14.93;;;;;;;-2.04;100.00;98861.66;10364606;28;20034;-78
2022/01/16 08:35:52;;;;;;;15.18;12.25;;;;;;;-1.99;100.00;98850.88;10370572;28;20045;-78
2022/01/16 08:40:55;;;;;;;16.48;12.82;;;;;;;-1.91;100.00;98844.31;10373631;28;20037;-79
2022/01/16 08:45:59;;;;;;;15.95;13.05;;;;;;;-1.77;100.00;98837.53;10389360;28;20046;-78
2022/01/16 08:51:03;;;;;;;17.45;13.88;;;;;;;-1.60;100.00;98845.50;10369066;28;20042;-78
2022/01/16 08:56:06;;;;;;;18.33;13.77;;;;;;;-1.48;100.00;98840.56;10380021;28;20045;-78
2022/01/16 09:01:11;;;;;;;15.93;12.70;;;;;;;-1.31;100.00;98837.91;10368092;28;20050;-77
2022/01/16 09:06:14;;;;;;;16.55;12.63;;;;;;;-1.15;100.00;98847.75;10354599;28;20112;-77
2022/01/16 09:11:23;;;;;;;15.57;12.57;;;;;;;-1.08;100.00;98854.41;10376289;28;20041;-78
2022/01/16 09:16:30;;;;;;;16.98;13.30;;;;;;;-0.99;100.00;98855.75;10384540;28;20043;-77
2022/01/16 09:21:33;;;;;;;17.33;13.68;;;;;;;-0.91;100.00;98843.00;10371302;28;20038;-77
2022/01/16 09:26:36;;;;;;;16.92;14.15;;;;;;;-0.84;100.00;98843.53;10369306;28;20112;-77
2022/01/16 09:31:41;;;;;;;17.02;13.15;;;;;;;-0.73;100.00;98845.63;10374141;28;20045;-77
2022/01/16 09:36:44;;;;;;;14.88;11.55;;;;;;;-0.55;100.00;98851.75;10384172;28;20061;-78
2022/01/16 09:41:47;;;;;;;15.40;12.43;;;;;;;-0.44;100.00;98867.94;10374298;28;20042;-79
2022/01/16 09:46:51;;;;;;;15.68;12.68;;;;;;;-0.42;100.00;98863.41;10361391;28;20050;-78
2022/01/16 09:51:54;;;;;;;14.02;11.27;;;;;;;-0.29;100.00;98862.78;10376407;28;20061;-78
2022/01/16 09:57:00;;;;;;;15.15;11.27;;;;;;;-0.20;100.00;98864.91;10379971;28;20052;-78
2022/01/16 10:02:05;;;;;;;13.55;10.38;;;;;;;-0.10;100.00;98865.25;10363078;28;20491;-78
2022/01/16 10:07:11;;;;;;;14.43;10.82;;;;;;;0.02;100.00;98861.94;10368203;28;20129;-79
2022/01/16 10:12:16;;;;;;;13.45;10.32;;;;;;;0.04;100.00;98865.38;10363620;28;20418;-78
2022/01/16 10:17:23;;;;;;;13.30;10.32;;;;;;;0.08;100.00;98866.06;10368103;28;20129;-78
2022/01/16 10:22:38;;;;;;;15.02;10.57;;;;;;;0.09;100.00;98855.38;10368225;28;20728;-78
2022/01/16 10:27:44;;;;;;;12.70;9.88;;;;;;;0.08;100.00;98845.72;10387805;28;20048;-79
2022/01/16 10:32:48;;;;;;;14.75;11.68;;;;;;;0.07;100.00;98843.16;10372209;28;20045;-78
2022/01/16 10:37:53;;;;;;;15.95;12.07;;;;;;;0.07;100.00;98851.09;10346295;28;20137;-77
2022/01/16 10:43:02;;;;;;;17.08;12.00;;;;;;;0.06;100.00;98849.41;10361228;28;20710;-79
2022/01/16 10:48:19;;;;;;;16.33;12.02;;;;;;;0.08;100.00;98847.50;10389852;28;20053;-78
2022/01/16 10:53:27;;;;;;;17.17;13.38;;;;;;;0.07;100.00;98848.44;10374502;28;20457;-76
2022/01/16 10:58:39;;;;;;;14.73;12.43;;;;;;;-0.01;100.00;98852.38;10355556;28;20057;-77
2022/01/16 11:03:45;;;;;;;14.93;11.43;;;;;;;-0.07;100.00;98858.03;10379509;28;20430;-76
2022/01/16 11:08:51;;;;;;;15.57;12.38;;;;;;;-0.09;100.00;98878.44;10367150;28;20053;-76
2022/01/16 11:13:56;;;;;;;16.23;13.48;;;;;;;-0.08;100.00;98888.09;10373367;28;20046;-76
2022/01/16 11:19:02;;;;;;;17.17;13.80;;;;;;;-0.09;100.00;98902.28;10394399;28;20050;-77
2022/01/16 11:24:25;;;;;;;16.48;13.32;;;;;;;-0.08;100.00;98893.41;10385504;28;20042;-77
2022/01/16 11:29:29;;;;;;;16.10;13.27;;;;;;;-0.05;100.00;98874.66;10383867;28;20041;-77
2022/01/16 11:34:33;;;;;;;17.23;12.32;;;;;;;-0.02;100.00;98877.16;10379345;28;20053;-77
2022/01/16 11:39:37;;;;;;;17.45;13.73;;;;;;;0.04;100.00;98873.31;10387075;28;20050;-78
2022/01/16 11:44:52;;;;;;;17.25;14.20;;;;;;;0.09;100.00;98870.41;10377268;28;20493;-76
2022/01/16 11:50:08;;;;;;;14.93;12.80;;;;;;;0.14;100.00;98879.81;10371491;28;20052;-77
2022/01/16 11:55:13;;;;;;;15.07;11.88;;;;;;;0.15;100.00;98892.13;10363847;28;20045;-77
2022/01/16 12:00:17;;;;;;;14.95;11.27;;;;;;;0.18;100.00;98896.41;10364734;28;20054;-78
2022/01/16 12:05:27;;;;;;;15.85;12.23;;;;;;;0.22;100.00;98895.31;10342960;28;20046;-78
2022/01/16 12:10:42;;;;;;;14.27;12.25;;;;;;;0.28;100.00;98897.63;10368774;28;20065;-77
2022/01/16 12:15:46;;;;;;;15.60;11.65;;;;;;;0.33;100.00;98912.41;10367621;28;20116;-79
2022/01/16 12:20:53;;;;;;;15.13;11.85;;;;;;;0.36;100.00;98915.75;10382993;28;20045;-79
2022/01/16 12:25:57;;;;;;;14.60;11.00;;;;;;;0.39;100.00;98914.75;10371027;28;20052;-77
2022/01/16 12:31:03;;;;;;;13.55;10.40;;;;;;;0.46;100.00;98910.78;10379635;28;20049;-79
2022/01/16 12:36:17;;;;;;;12.27;9.60;;;;;;;0.53;100.00;98898.91;10380243;28;20042;-80
2022/01/16 12:41:27;;;;;;;12.20;9.00;;;;;;;0.58;100.00;98893.38;10389401;28;20041;-78
2022/01/16 12:46:38;;;;;;;11.20;9.40;;;;;;;0.65;100.00;98886.75;10369605;28;20080;-78
2022/01/16 12:51:43;;;;;;;;;;;;;;;0.63;100.00;98866.59;10389859;28;20112;-80
2022/01/16 12:56:49;;;;;;;11.20;8.75;;;;;;;0.70;100.00;98862.63;10361475;28;19925;-79
2022/01/16 13:02:12;;;;;;;10.90;8.35;;;;;;;0.73;100.00;98865.09;10361258;28;20049;-80
2022/01/16 13:07:17;;;;;;;10.20;8.65;;;;;;;0.79;100.00;98859.44;10338230;28;20506;-80
2022/01/16 13:12:22;;;;;;;10.25;7.60;;;;;;;0.81;100.00;98848.75;10373989;28;20073;-78
2022/01/16 13:17:25;;;;;;;9.73;7.90;;;;;;;0.86;100.00;98846.66;10372137;28;20062;-80
2022/01/16 13:22:30;;;;;;;9.65;7.43;;;;;;;0.85;100.00;98848.50;10356213;28;20494;-77
2022/01/16 13:27:37;;;;;;;10.80;8.48;;;;;;;0.89;100.00;98852.66;10357110;28;20104;-78
2022/01/16 13:32:42;;;;;;;9.38;7.47;;;;;;;0.96;100.00;98862.91;10387375;28;20068;-81
2022/01/16 13:37:49;;;;;;;10.95;8.60;;;;;;;0.97;100.00;98875.25;10383211;28;20484;-78
2022/01/16 13:43:02;;;;;;;10.32;8.30;;;;;;;1.01;100.00;98874.09;10362940;28;20049;-81
2022/01/16 13:48:08;;;;;;;11.35;8.73;;;;;;;1.02;100.00;98883.78;10362397;28;20518;-80
2022/01/16 13:53:14;;;;;;;10.18;7.50;;;;;;;1.03;100.00;98880.19;10378560;28;20046;-79
2022/01/16 13:58:20;;;;;;;11.13;8.15;;;;;;;1.07;100.00;98881.72;10386777;28;20060;-80
2022/01/16 14:03:25;;;;;;;9.35;7.43;;;;;;;1.10;100.00;98873.59;10381487;28;20475;-78
2022/01/16 14:08:36;;;;;;;10.25;8.07;;;;;;;1.11;100.00;98885.91;10394086;28;20172;-80
2022/01/16 14:13:50;;;;;;;10.55;8.20;;;;;;;1.11;100.00;98891.22;10397803;28;20065;-80
2022/01/16 14:24:13;;;;;;;12.57;9.90;;;;;;;1.06;100.00;98906.53;10376439;28;20085;-79
2022/01/16 14:29:18;;;;;;;13.25;10.00;;;;;;;1.03;100.00;98906.72;10387537;28;20048;-78
2022/01/16 14:34:22;;;;;;;11.88;9.35;;;;;;;1.39;100.00;98913.47;10372781;28;20049;-77
2022/01/16 14:39:28;;;;;;;10.57;8.82;;;;;;;1.34;100.00;98923.53;10376056;28;20050;-78
2022/01/16 14:44:33;;;;;;;10.27;8.20;;;;;;;1.35;100.00;98922.56;10376697;28;20108;-76
2022/01/16 14:49:37;;;;;;;10.23;7.95;;;;;;;1.46;100.00;98920.13;10366073;28;20042;-77
2022/01/16 14:54:44;;;;;;;14.07;9.10;;;;;;;1.45;100.00;98930.84;10385265;28;20124;-79
2022/01/16 14:59:49;;;;;;;11.07;8.30;;;;;;;1.52;100.00;98937.50;10355986;28;20144;-79
2022/01/16 15:04:52;;;;;;;11.82;8.80;;;;;;;1.52;100.00;98935.69;10353249;28;20049;-81
2022/01/16 15:09:58;;;;;;;11.48;8.57;;;;;;;1.56;100.00;98944.31;10379178;28;20057;-80
2022/01/16 15:15:02;;;;;;;11.07;8.63;;;;;;;1.60;100.00;98947.66;10369292;28;20038;-79
2022/01/16 15:20:08;;;;;;;12.85;8.93;;;;;;;1.62;100.00;98961.69;10364770;28;20474;-75
2022/01/16 15:25:16;;;;;;;12.30;8.57;;;;;;;1.72;100.00;98952.22;10361466;28;20131;-75
2022/01/16 15:30:23;;;;;;;10.82;8.23;;;;;;;1.79;100.00;98968.66;10371580;28;20041;-81
2022/01/16 15:35:27;;;;;;;12.73;8.75;;;;;;;1.80;100.00;98981.88;10336718;28;20056;-80
2022/01/16 15:40:35;;;;;;;12.00;7.95;;;;;;;1.85;100.00;98989.56;10353254;28;20127;-79
2022/01/16 15:45:39;;;;;;;10.80;8.68;;;;;;;1.89;100.00;98990.22;10356575;28;20077;-78
2022/01/16 15:50:45;;;;;;;12.02;8.05;;;;;;;1.98;100.00;98987.88;10353667;28;20080;-80
2022/01/16 15:55:50;;;;;;;10.95;8.40;;;;;;;1.98;100.00;98987.00;10357738;28;20868;-80
2022/01/16 16:00:53;;;;;;;11.13;8.15;;;;;;;1.99;100.00;98988.72;10364398;28;20054;-78
2022/01/16 16:05:57;;;;;;;10.48;8.20;;;;;;;2.01;100.00;99000.13;10378703;28;20057;-78
2022/01/16 16:11:03;;;;;;;9.63;7.80;;;;;;;2.07;100.00;99010.34;10371101;28;20112;-78
2022/01/16 16:16:06;;;;;;;9.60;7.40;;;;;;;2.10;100.00;99020.81;10366787;28;20049;-76
2022/01/16 16:21:09;;;;;;;8.93;7.03;;;;;;;2.14;100.00;99022.34;10351449;28;20412;-79
2022/01/16 16:26:20;;;;;;;8.68;6.72;;;;;;;2.22;100.00;99019.22;10373491;28;20053;-80
2022/01/16 16:31:23;;;;;;;8.65;7.03;;;;;;;2.28;100.00;99023.31;10353883;28;20602;-78
2022/01/16 16:36:26;;;;;;;8.30;7.15;;;;;;;2.22;100.00;99034.31;10363227;28;20155;-78
2022/01/16 16:41:35;;;;;;;9.82;7.32;;;;;;;2.29;100.00;99031.19;10370312;28;21377;-76
2022/01/16 16:46:39;;;;;;;9.93;7.70;;;;;;;2.23;100.00;99046.66;10392109;28;20053;-77
2022/01/16 16:51:43;;;;;;;11.02;8.35;;;;;;;2.27;100.00;99024.25;10380785;28;20050;-80
2022/01/16 16:56:48;;;;;;;9.95;8.30;;;;;;;2.25;100.00;99034.97;10371152;28;20656;-80
2022/01/16 17:01:51;;;;;;;10.13;8.50;;;;;;;2.32;100.00;99040.78;10382467;28;20084;-78
2022/01/16 17:06:55;;;;;;;11.80;7.95;;;;;;;2.37;100.00;99035.19;10376637;28;20046;-77
2022/01/16 17:11:59;;;;;;;11.23;8.05;;;;;;;2.41;100.00;99047.34;10391093;28;20099;-76
2022/01/16 17:17:10;;;;;;;12.15;8.52;;;;;;;2.36;100.00;99041.44;10385882;28;20046;-76
2022/01/16 17:22:15;;;;;;;11.10;8.48;;;;;;;2.32;100.00;99048.75;10390770;28;20049;-76
2022/01/16 17:27:21;;;;;;;11.45;8.52;;;;;;;2.28;100.00;99053.41;10386978;28;20842;-78
2022/01/16 17:32:24;;;;;;;11.00;8.32;;;;;;;2.32;100.00;99054.06;10375865;28;20049;-77
2022/01/16 17:37:27;;;;;;;10.82;7.65;;;;;;;2.32;100.00;99056.72;10378382;28;20076;-76
2022/01/16 17:42:32;;;;;;;9.75;7.95;;;;;;;2.37;100.00;99044.03;10375001;28;21083;-77
2022/01/16 17:47:35;;;;;;;10.80;9.15;;;;;;;2.34;100.00;99065.47;10378707;28;20490;-77
2022/01/16 17:52:39;;;;;;;13.77;10.20;;;;;;;2.31;100.00;99055.00;10359828;28;20391;-76
2022/01/16 17:57:45;;;;;;;11.73;9.35;;;;;;;2.28;100.00;99048.09;10375305;28;20073;-78
2022/01/16 18:02:48;;;;;;;15.00;12.52;;;;;;;2.33;100.00;99053.13;10374421;28;20560;-77
2022/01/16 18:07:53;;;;;;;14.10;9.88;;;;;;;2.33;100.00;99060.25;10391546;28;20068;-77
2022/01/16 18:12:58;;;;;;;13.55;9.30;;;;;;;2.35;100.00;99066.34;10379568;28;20077;-79
2022/01/16 18:18:22;;;;;;;12.93;9.65;;;;;;;2.39;100.00;99076.69;10386407;28;20045;-79
2022/01/16 18:23:26;;;;;;;12.07;9.20;;;;;;;2.51;100.00;99075.09;10382919;28;20116;-79
2022/01/16 18:28:31;;;;;;;11.30;9.45;;;;;;;2.60;100.00;99071.84;10386634;28;20050;-79
2022/01/16 18:33:34;;;;;;;13.63;9.30;;;;;;;2.67;100.00;99085.63;10377256;28;20045;-77
2022/01/16 18:38:37;;;;;;;14.55;9.40;;;;;;;2.76;100.00;99090.38;10388579;28;20042;-77
2022/01/16 18:43:42;;;;;;;14.15;9.45;;;;;;;2.83;100.00;99100.66;10384505;28;20192;-77
2022/01/16 18:48:48;;;;;;;14.23;9.65;;;;;;;2.78;100.00;99112.44;10391810;28;20066;-79
2022/01/16 18:53:51;;;;;;;11.05;9.38;;;;;;;2.82;100.00;99112.25;10389164;28;20037;-75
2022/01/16 18:58:56;;;;;;;12.60;9.98;;;;;;;2.83;100.00;99108.63;10393644;28;20528;-78
2022/01/16 19:04:00;;;;;;;11.70;9.10;;;;;;;2.86;100.00;99111.13;10384585;28;20421;-77
2022/01/16 19:09:05;;;;;;;13.48;10.65;;;;;;;2.84;100.00;99102.38;10387553;28;20045;-78
2022/01/16 19:14:12;;;;;;;13.38;10.05;;;;;;;2.84;100.00;99097.06;10393624;28;20037;-78
2022/01/16 19:19:15;;;;;;;12.98;10.70;;;;;;;2.85;100.00;99094.28;10379169;28;20055;-80
2022/01/16 19:24:18;;;;;;;12.55;9.82;;;;;;;2.82;100.00;99107.81;10395712;28;20119;-76
2022/01/16 19:29:23;;;;;;;12.65;10.10;;;;;;;2.85;100.00;99098.75;10374549;28;20363;-78
2022/01/16 19:34:27;;;;;;;14.07;10.48;;;;;;;2.82;100.00;99112.25;10387818;28;20048;-80
2022/01/16 19:39:30;;;;;;;13.68;10.45;;;;;;;2.86;100.00;99127.09;10348617;28;20115;-79
2022/01/16 19:44:35;;;;;;;16.20;11.13;;;;;;;2.81;100.00;99131.81;10371813;28;20057;-79
2022/01/16 19:49:38;;;;;;;14.23;11.80;;;;;;;2.82;100.00;99133.53;10379887;28;20045;-82
2022/01/16 19:54:42;;;;;;;15.60;11.40;;;;;;;2.84;100.00;99134.31;10359427;28;20132;-80
2022/01/16 19:59:46;;;;;;;16.52;11.70;;;;;;;2.86;100.00;99127.94;10387718;28;20112;-81
2022/01/16 20:04:49;;;;;;;13.27;10.80;;;;;;;2.91;100.00;99139.16;10381649;28;20029;-80
2022/01/16 20:09:53;;;;;;;15.25;11.50;;;;;;;2.93;100.00;99163.00;10372476;28;20049;-79
2022/01/16 20:14:57;;;;;;;15.82;11.23;;;;;;;3.00;100.00;99147.50;10383277;28;20347;-81
2022/01/16 20:20:01;;;;;;;19.27;12.18;;;;;;;2.99;100.00;99137.81;10375184;28;20458;-80
2022/01/16 20:25:05;;;;;;;19.25;12.05;;;;;;;2.93;100.00;99139.06;10366851;28;20048;-81
2022/01/16 20:30:11;;;;;;;15.50;12.13;;;;;;;2.95;100.00;99161.13;10379671;28;20490;-81
2022/01/16 20:35:18;;;;;;;15.55;11.80;;;;;;;2.97;100.00;99156.56;10377123;28;20112;-78
2022/01/16 20:40:24;;;;;;;14.82;11.68;;;;;;;3.00;100.00;99147.50;10380873;28;20656;-80
2022/01/16 20:45:30;;;;;;;14.68;11.77;;;;;;;3.00;100.00;99143.03;10360976;28;20811;-80
2022/01/16 20:50:34;;;;;;;13.50;10.18;;;;;;;2.99;100.00;99140.47;10380069;28;20136;-81
2022/01/16 20:55:38;;;;;;;13.45;10.60;;;;;;;2.97;100.00;99147.69;10384754;28;20313;-80
2022/01/16 21:00:43;;;;;;;14.13;10.85;;;;;;;2.93;100.00;99147.91;10383870;28;20108;-82
2022/01/16 21:05:46;;;;;;;13.80;10.18;;;;;;;2.96;100.00;99159.28;10380108;28;20034;-80
2022/01/16 21:10:55;;;;;;;15.20;11.40;;;;;;;2.97;100.00;99145.03;10382171;28;20041;-81
2022/01/16 21:16:00;;;;;;;15.05;11.32;;;;;;;2.97;100.00;99124.63;10385624;28;20049;-80
2022/01/16 21:21:03;;;;;;;18.98;13.05;;;;;;;2.94;100.00;99122.13;10390016;28;20041;-79
2022/01/16 21:26:07;;;;;;;17.23;12.55;;;;;;;2.87;100.00;99131.47;10367149;28;20117;-80
2022/01/16 21:31:13;;;;;;;15.20;12.40;;;;;;;2.86;100.00;99140.41;10360797;28;20058;-80
2022/01/16 21:36:18;;;;;;;15.82;11.98;;;;;;;2.72;100.00;99150.06;10364564;28;20057;-79
2022/01/16 21:41:21;;;;;;;14.48;10.77;;;;;;;2.72;100.00;99142.09;10364831;28;20034;-80
2022/01/16 21:46:25;;;;;;;12.45;10.45;;;;;;;2.72;100.00;99149.19;10364611;28;20092;-80
2022/01/16 21:51:29;;;;;;;13.00;10.45;;;;;;;2.79;100.00;99145.25;10367608;28;20593;-78
2022/01/16 21:56:32;;;;;;;16.05;10.35;;;;;;;2.78;100.00;99148.84;10381878;28;20042;-80
2022/01/16 22:01:37;;;;;;;12.38;9.45;;;;;;;2.88;100.00;99126.03;10381251;28;20049;-78
2022/01/16 22:06:40;;;;;;;12.88;9.90;;;;;;;2.86;100.00;99153.69;10368753;28;20082;-78
2022/01/16 22:11:45;;;;;;;11.82;9.80;;;;;;;2.91;100.00;99151.59;10372801;28;20046;-79
2022/01/16 22:16:50;;;;;;;13.50;10.35;;;;;;;2.91;100.00;99159.59;10372128;28;20085;-79
2022/01/16 22:21:53;;;;;;;13.00;10.35;;;;;;;2.98;100.00;99144.97;10382693;28;20105;-79
2022/01/16 22:26:56;;;;;;;12.38;9.73;;;;;;;2.96;100.00;99154.84;10386038;28;20049;-79
2022/01/16 22:32:02;;;;;;;13.07;10.23;;;;;;;2.99;100.00;99149.34;10374768;28;20117;-79
2022/01/16 22:37:10;;;;;;;11.20;9.40;;;;;;;3.04;100.00;99149.88;10392151;28;20050;-77
2022/01/16 22:42:14;;;;;;;10.80;8.82;;;;;;;3.04;100.00;99154.38;10392296;28;20049;-78
2022/01/16 22:47:19;;;;;;;11.52;9.30;;;;;;;3.10;100.00;99163.78;10392988;28;20041;-79
2022/01/16 22:52:27;;;;;;;12.15;9.30;;;;;;;3.16;100.00;99158.94;10392008;28;20052;-78
2022/01/16 22:57:30;;;;;;;10.55;8.77;;;;;;;3.15;100.00;99164.34;10394670;28;20057;-77
2022/01/16 23:02:34;;;;;;;10.60;8.70;;;;;;;3.13;100.00;99168.91;10394821;28;20514;-78
2022/01/16 23:07:38;;;;;;;10.40;8.50;;;;;;;3.16;100.00;99169.59;10390362;28;20042;-77
2022/01/16 23:12:41;;;;;;;9.95;7.78;;;;;;;3.19;100.00;99165.88;10391909;28;20421;-78
2022/01/16 23:17:46;;;;;;;9.07;7.13;;;;;;;3.21;100.00;99171.97;10387448;28;20049;-77
2022/01/16 23:22:49;;;;;;;8.32;7.10;;;;;;;3.21;100.00;99167.47;10380206;28;20046;-77
2022/01/16 23:27:52;;;;;;;8.60;6.85;;;;;;;3.27;100.00;99174.22;10385516;28;21178;-78
2022/01/16 23:32:56;;;;;;;9.30;7.30;;;;;;;3.35;100.00;99173.75;10379019;28;20144;-77
2022/01/16 23:37:59;;;;;;;8.82;7.22;;;;;;;3.37;100.00;99172.69;10391845;28;20042;-77
2022/01/16 23:43:03;;;;;;;8.73;7.32;;;;;;;3.39;100.00;99168.13;10387670;28;20339;-77